sensor_id;sensor_type;location;lat;lon;timestamp;temperature;humidity
5779;DHT22;2916;49.798;10.022;2023-01-29T00:01:50;0.00;85.70
5779;DHT22;2916;49.798;10.022;2023-01-29T00:04:17;-0.10;76.60
5779;DHT22;2916;49.798;10.022;2023-01-29T00:06:45;-0.10;81.30
5779;DHT22;2916;49.798;10.022;2023-01-29T00:09:11;0.00;86.10
5779;DHT22;2916;49.798;10.022;2023-01-29T00:11:39;0.00;88.90
5779;DHT22;2916;49.798;10.022;2023-01-29T00:14:06;-0.10;84.00
5779;DHT22;2916;49.798;10.022;2023-01-29T00:16:33;0.00;82.20
5779;DHT22;2916;49.798;10.022;2023-01-29T00:19:02;0.00;81.00
5779;DHT22;2916;49.798;10.022;2023-01-29T00:21:29;0.00;80.30
5779;DHT22;2916;49.798;10.022;2023-01-29T00:23:57;0.00;78.60
5779;DHT22;2916;49.798;10.022;2023-01-29T00:26:24;0.00;75.80
5779;DHT22;2916;49.798;10.022;2023-01-29T00:28:51;0.00;79.90
5779;DHT22;2916;49.798;10.022;2023-01-29T00:31:20;0.00;81.90
5779;DHT22;2916;49.798;10.022;2023-01-29T00:33:48;0.00;83.70
5779;DHT22;2916;49.798;10.022;2023-01-29T00:36:19;0.00;86.30
5779;DHT22;2916;49.798;10.022;2023-01-29T00:38:46;0.00;83.30
5779;DHT22;2916;49.798;10.022;2023-01-29T00:41:19;-0.10;83.20
5779;DHT22;2916;49.798;10.022;2023-01-29T00:44:05;0.00;86.20
5779;DHT22;2916;49.798;10.022;2023-01-29T00:46:50;-0.10;91.90
5779;DHT22;2916;49.798;10.022;2023-01-29T00:49:17;-0.10;92.70
5779;DHT22;2916;49.798;10.022;2023-01-29T00:51:45;-0.10;88.60
5779;DHT22;2916;49.798;10.022;2023-01-29T00:54:33;-0.10;83.70
5779;DHT22;2916;49.798;10.022;2023-01-29T00:57:00;-0.10;79.80
5779;DHT22;2916;49.798;10.022;2023-01-29T00:59:27;-0.10;72.70
5779;DHT22;2916;49.798;10.022;2023-01-29T01:01:54;-0.10;78.10
5779;DHT22;2916;49.798;10.022;2023-01-29T01:04:38;-0.10;82.50
5779;DHT22;2916;49.798;10.022;2023-01-29T01:07:07;-0.10;90.90
5779;DHT22;2916;49.798;10.022;2023-01-29T01:09:34;-0.10;90.30
5779;DHT22;2916;49.798;10.022;2023-01-29T01:12:19;-0.10;90.00
5779;DHT22;2916;49.798;10.022;2023-01-29T01:14:46;-0.10;91.70
5779;DHT22;2916;49.798;10.022;2023-01-29T01:17:13;-0.20;83.70
5779;DHT22;2916;49.798;10.022;2023-01-29T01:19:40;-0.40;64.40
5779;DHT22;2916;49.798;10.022;2023-01-29T01:22:08;-0.30;68.30
5779;DHT22;2916;49.798;10.022;2023-01-29T01:24:35;-0.30;68.70
5779;DHT22;2916;49.798;10.022;2023-01-29T01:27:02;-0.30;74.00
5779;DHT22;2916;49.798;10.022;2023-01-29T01:29:30;-0.30;78.70
5779;DHT22;2916;49.798;10.022;2023-01-29T01:31:57;-0.20;90.20
5779;DHT22;2916;49.798;10.022;2023-01-29T01:34:24;-0.20;90.60
5779;DHT22;2916;49.798;10.022;2023-01-29T01:36:52;-0.30;88.70
5779;DHT22;2916;49.798;10.022;2023-01-29T01:39:22;-0.30;84.50
5779;DHT22;2916;49.798;10.022;2023-01-29T01:41:49;-0.20;88.20
5779;DHT22;2916;49.798;10.022;2023-01-29T01:44:48;-0.30;87.60
5779;DHT22;2916;49.798;10.022;2023-01-29T01:47:20;-0.30;86.60
5779;DHT22;2916;49.798;10.022;2023-01-29T01:49:48;-0.30;91.50
5779;DHT22;2916;49.798;10.022;2023-01-29T01:52:16;-0.30;83.00
5779;DHT22;2916;49.798;10.022;2023-01-29T01:54:47;-0.30;83.30
5779;DHT22;2916;49.798;10.022;2023-01-29T01:57:16;-0.30;82.90
5779;DHT22;2916;49.798;10.022;2023-01-29T01:59:53;-0.30;82.60
5779;DHT22;2916;49.798;10.022;2023-01-29T02:02:22;-0.30;74.10
5779;DHT22;2916;49.798;10.022;2023-01-29T02:05:07;-0.60;62.40
5779;DHT22;2916;49.798;10.022;2023-01-29T02:07:53;-0.40;69.40
5779;DHT22;2916;49.798;10.022;2023-01-29T02:10:42;-0.40;75.10
5779;DHT22;2916;49.798;10.022;2023-01-29T02:13:10;-0.40;74.20
5779;DHT22;2916;49.798;10.022;2023-01-29T02:15:40;-0.40;70.60
5779;DHT22;2916;49.798;10.022;2023-01-29T02:18:13;-0.50;62.50
5779;DHT22;2916;49.798;10.022;2023-01-29T02:20:43;-0.60;60.90
5779;DHT22;2916;49.798;10.022;2023-01-29T02:23:32;-0.80;60.30
5779;DHT22;2916;49.798;10.022;2023-01-29T02:26:18;-0.90;64.80
5779;DHT22;2916;49.798;10.022;2023-01-29T02:28:50;-0.90;66.40
5779;DHT22;2916;49.798;10.022;2023-01-29T02:31:25;-0.70;74.70
5779;DHT22;2916;49.798;10.022;2023-01-29T02:33:59;-0.60;76.70
5779;DHT22;2916;49.798;10.022;2023-01-29T02:36:34;-0.60;73.90
5779;DHT22;2916;49.798;10.022;2023-01-29T02:39:14;-0.60;69.30
5779;DHT22;2916;49.798;10.022;2023-01-29T02:41:46;-0.70;65.00
5779;DHT22;2916;49.798;10.022;2023-01-29T02:44:20;-0.80;63.70
5779;DHT22;2916;49.798;10.022;2023-01-29T02:46:55;-0.90;65.40
5779;DHT22;2916;49.798;10.022;2023-01-29T02:49:28;-0.90;69.30
5779;DHT22;2916;49.798;10.022;2023-01-29T02:52:00;-0.80;71.50
5779;DHT22;2916;49.798;10.022;2023-01-29T02:54:33;-0.90;64.80
5779;DHT22;2916;49.798;10.022;2023-01-29T02:57:09;-1.00;66.90
5779;DHT22;2916;49.798;10.022;2023-01-29T02:59:45;-1.00;66.60
5779;DHT22;2916;49.798;10.022;2023-01-29T03:02:17;-0.90;70.60
5779;DHT22;2916;49.798;10.022;2023-01-29T03:04:49;-0.90;67.10
5779;DHT22;2916;49.798;10.022;2023-01-29T03:07:22;-0.90;63.90
5779;DHT22;2916;49.798;10.022;2023-01-29T03:10:09;-1.00;63.10
5779;DHT22;2916;49.798;10.022;2023-01-29T03:12:38;-0.90;66.70
5779;DHT22;2916;49.798;10.022;2023-01-29T03:15:10;-0.80;70.30
5779;DHT22;2916;49.798;10.022;2023-01-29T03:17:44;-0.70;74.20
5779;DHT22;2916;49.798;10.022;2023-01-29T03:20:15;-0.70;84.00
5779;DHT22;2916;49.798;10.022;2023-01-29T03:22:45;-0.70;88.10
5779;DHT22;2916;49.798;10.022;2023-01-29T03:25:17;-0.70;89.40
5779;DHT22;2916;49.798;10.022;2023-01-29T03:28:04;-0.60;86.40
5779;DHT22;2916;49.798;10.022;2023-01-29T03:30:53;-0.60;84.50
5779;DHT22;2916;49.798;10.022;2023-01-29T03:33:42;-0.60;80.20
5779;DHT22;2916;49.798;10.022;2023-01-29T03:36:15;-0.60;80.10
5779;DHT22;2916;49.798;10.022;2023-01-29T03:38:43;-0.60;84.50
5779;DHT22;2916;49.798;10.022;2023-01-29T03:41:21;-0.60;83.30
5779;DHT22;2916;49.798;10.022;2023-01-29T03:43:53;-0.60;76.70
5779;DHT22;2916;49.798;10.022;2023-01-29T03:46:28;-0.60;80.00
5779;DHT22;2916;49.798;10.022;2023-01-29T03:49:00;-0.60;73.90
5779;DHT22;2916;49.798;10.022;2023-01-29T03:51:35;-0.50;75.80
5779;DHT22;2916;49.798;10.022;2023-01-29T03:54:08;-0.60;82.10
5779;DHT22;2916;49.798;10.022;2023-01-29T03:56:48;-0.60;77.90
5779;DHT22;2916;49.798;10.022;2023-01-29T03:59:22;-0.70;76.90
5779;DHT22;2916;49.798;10.022;2023-01-29T04:01:53;-0.70;82.80
5779;DHT22;2916;49.798;10.022;2023-01-29T04:04:23;-0.70;84.40
5779;DHT22;2916;49.798;10.022;2023-01-29T04:06:56;-0.70;80.70
5779;DHT22;2916;49.798;10.022;2023-01-29T04:09:29;-0.70;76.10
5779;DHT22;2916;49.798;10.022;2023-01-29T04:12:02;-0.70;81.80
5779;DHT22;2916;49.798;10.022;2023-01-29T04:14:31;-0.70;83.00
5779;DHT22;2916;49.798;10.022;2023-01-29T04:17:02;-0.60;87.10
5779;DHT22;2916;49.798;10.022;2023-01-29T04:19:30;-0.60;88.70
5779;DHT22;2916;49.798;10.022;2023-01-29T04:22:03;-0.60;81.00
5779;DHT22;2916;49.798;10.022;2023-01-29T04:24:31;-0.70;78.80
5779;DHT22;2916;49.798;10.022;2023-01-29T04:27:08;-0.60;82.90
5779;DHT22;2916;49.798;10.022;2023-01-29T04:29:44;-0.60;86.80
5779;DHT22;2916;49.798;10.022;2023-01-29T04:32:19;-0.60;90.00
5779;DHT22;2916;49.798;10.022;2023-01-29T04:34:58;-0.60;90.40
5779;DHT22;2916;49.798;10.022;2023-01-29T04:37:32;-0.60;91.30
5779;DHT22;2916;49.798;10.022;2023-01-29T04:40:08;-0.60;90.70
5779;DHT22;2916;49.798;10.022;2023-01-29T04:42:43;-0.60;84.10
5779;DHT22;2916;49.798;10.022;2023-01-29T04:45:19;-0.60;87.40
5779;DHT22;2916;49.798;10.022;2023-01-29T04:47:59;-0.60;89.40
5779;DHT22;2916;49.798;10.022;2023-01-29T04:50:34;-0.60;91.50
5779;DHT22;2916;49.798;10.022;2023-01-29T04:53:09;-0.60;91.50
5779;DHT22;2916;49.798;10.022;2023-01-29T04:55:42;-0.60;84.90
5779;DHT22;2916;49.798;10.022;2023-01-29T04:58:14;-0.70;75.50
5779;DHT22;2916;49.798;10.022;2023-01-29T05:00:44;-0.70;74.40
5779;DHT22;2916;49.798;10.022;2023-01-29T05:03:15;-0.70;73.60
5779;DHT22;2916;49.798;10.022;2023-01-29T05:05:44;-0.70;85.80
5779;DHT22;2916;49.798;10.022;2023-01-29T05:08:14;-0.70;91.10
5779;DHT22;2916;49.798;10.022;2023-01-29T05:10:42;-0.80;74.20
5779;DHT22;2916;49.798;10.022;2023-01-29T05:13:12;-0.80;72.10
5779;DHT22;2916;49.798;10.022;2023-01-29T05:15:43;-0.80;70.70
5779;DHT22;2916;49.798;10.022;2023-01-29T05:18:13;-0.80;67.10
5779;DHT22;2916;49.798;10.022;2023-01-29T05:20:42;-0.80;68.70
5779;DHT22;2916;49.798;10.022;2023-01-29T05:23:14;-0.80;65.90
5779;DHT22;2916;49.798;10.022;2023-01-29T05:25:41;-0.80;64.90
5779;DHT22;2916;49.798;10.022;2023-01-29T05:28:08;-0.80;67.30
5779;DHT22;2916;49.798;10.022;2023-01-29T05:30:41;-0.90;68.00
5779;DHT22;2916;49.798;10.022;2023-01-29T05:33:12;-0.90;72.10
5779;DHT22;2916;49.798;10.022;2023-01-29T05:35:41;-0.90;70.90
5779;DHT22;2916;49.798;10.022;2023-01-29T05:38:08;-0.90;72.00
5779;DHT22;2916;49.798;10.022;2023-01-29T05:40:36;-0.90;72.00
5779;DHT22;2916;49.798;10.022;2023-01-29T05:43:04;-0.80;74.60
5779;DHT22;2916;49.798;10.022;2023-01-29T05:45:31;-0.90;92.00
5779;DHT22;2916;49.798;10.022;2023-01-29T05:47:59;-0.90;90.30
5779;DHT22;2916;49.798;10.022;2023-01-29T05:50:26;-0.90;94.30
5779;DHT22;2916;49.798;10.022;2023-01-29T05:52:59;-0.90;93.40
5779;DHT22;2916;49.798;10.022;2023-01-29T05:55:27;-0.90;95.00
5779;DHT22;2916;49.798;10.022;2023-01-29T05:57:55;-0.90;97.30
5779;DHT22;2916;49.798;10.022;2023-01-29T06:00:22;-0.80;99.40
5779;DHT22;2916;49.798;10.022;2023-01-29T06:02:49;-0.80;99.90
5779;DHT22;2916;49.798;10.022;2023-01-29T06:05:16;-0.80;99.90
5779;DHT22;2916;49.798;10.022;2023-01-29T06:07:43;-0.80;99.20
5779;DHT22;2916;49.798;10.022;2023-01-29T06:10:14;-0.80;99.70
5779;DHT22;2916;49.798;10.022;2023-01-29T06:12:42;-0.80;99.90
5779;DHT22;2916;49.798;10.022;2023-01-29T06:15:10;-0.80;98.60
5779;DHT22;2916;49.798;10.022;2023-01-29T06:17:37;-0.80;96.00
5779;DHT22;2916;49.798;10.022;2023-01-29T06:20:05;-0.80;95.50
5779;DHT22;2916;49.798;10.022;2023-01-29T06:22:32;-0.80;94.70
5779;DHT22;2916;49.798;10.022;2023-01-29T06:24:59;-0.80;95.00
5779;DHT22;2916;49.798;10.022;2023-01-29T06:27:27;-0.80;96.30
5779;DHT22;2916;49.798;10.022;2023-01-29T06:29:54;-0.80;97.30
5779;DHT22;2916;49.798;10.022;2023-01-29T06:32:21;-0.80;97.80
5779;DHT22;2916;49.798;10.022;2023-01-29T06:34:48;-0.80;97.00
5779;DHT22;2916;49.798;10.022;2023-01-29T06:37:15;-0.80;98.40
5779;DHT22;2916;49.798;10.022;2023-01-29T06:39:42;-0.80;99.30
5779;DHT22;2916;49.798;10.022;2023-01-29T06:42:09;-0.80;99.90
5779;DHT22;2916;49.798;10.022;2023-01-29T06:44:37;-0.70;99.90
5779;DHT22;2916;49.798;10.022;2023-01-29T06:47:04;-0.70;99.90
5779;DHT22;2916;49.798;10.022;2023-01-29T06:49:31;-0.70;99.40
5779;DHT22;2916;49.798;10.022;2023-01-29T06:51:58;-0.80;96.30
5779;DHT22;2916;49.798;10.022;2023-01-29T06:54:25;-0.70;94.40
5779;DHT22;2916;49.798;10.022;2023-01-29T06:56:52;-0.70;99.90
5779;DHT22;2916;49.798;10.022;2023-01-29T06:59:19;-0.70;99.90
5779;DHT22;2916;49.798;10.022;2023-01-29T07:01:47;-0.70;99.90
5779;DHT22;2916;49.798;10.022;2023-01-29T07:04:14;-0.70;99.90
5779;DHT22;2916;49.798;10.022;2023-01-29T07:06:41;-0.70;99.90
5779;DHT22;2916;49.798;10.022;2023-01-29T07:09:10;-0.70;99.90
5779;DHT22;2916;49.798;10.022;2023-01-29T07:11:37;-0.70;99.90
5779;DHT22;2916;49.798;10.022;2023-01-29T07:14:05;-0.70;99.90
5779;DHT22;2916;49.798;10.022;2023-01-29T07:16:32;-0.80;99.90
5779;DHT22;2916;49.798;10.022;2023-01-29T07:19:00;-0.70;99.90
5779;DHT22;2916;49.798;10.022;2023-01-29T07:21:27;-0.80;94.80
5779;DHT22;2916;49.798;10.022;2023-01-29T07:23:54;-0.70;99.60
5779;DHT22;2916;49.798;10.022;2023-01-29T07:26:21;-0.80;98.60
5779;DHT22;2916;49.798;10.022;2023-01-29T07:28:48;-0.70;98.90
5779;DHT22;2916;49.798;10.022;2023-01-29T07:31:15;-0.70;98.10
5779;DHT22;2916;49.798;10.022;2023-01-29T07:33:43;-0.70;95.80
5779;DHT22;2916;49.798;10.022;2023-01-29T07:36:12;-0.70;93.80
5779;DHT22;2916;49.798;10.022;2023-01-29T07:38:39;-0.70;91.20
5779;DHT22;2916;49.798;10.022;2023-01-29T07:41:06;-0.70;92.00
5779;DHT22;2916;49.798;10.022;2023-01-29T07:43:33;-0.70;94.10
5779;DHT22;2916;49.798;10.022;2023-01-29T07:46:01;-0.70;93.50
5779;DHT22;2916;49.798;10.022;2023-01-29T07:48:29;-0.70;92.10
5779;DHT22;2916;49.798;10.022;2023-01-29T07:50:56;-0.80;94.10
5779;DHT22;2916;49.798;10.022;2023-01-29T07:53:25;-0.90;88.30
5779;DHT22;2916;49.798;10.022;2023-01-29T07:55:53;-0.80;87.30
5779;DHT22;2916;49.798;10.022;2023-01-29T07:58:20;-0.70;84.10
5779;DHT22;2916;49.798;10.022;2023-01-29T08:00:47;-0.70;85.50
5779;DHT22;2916;49.798;10.022;2023-01-29T08:03:16;-0.70;88.10
5779;DHT22;2916;49.798;10.022;2023-01-29T08:05:45;-0.60;91.40
5779;DHT22;2916;49.798;10.022;2023-01-29T08:08:12;-0.70;86.30
5779;DHT22;2916;49.798;10.022;2023-01-29T08:10:41;-0.60;85.30
5779;DHT22;2916;49.798;10.022;2023-01-29T08:13:08;-0.70;78.20
5779;DHT22;2916;49.798;10.022;2023-01-29T08:15:35;-0.60;80.60
5779;DHT22;2916;49.798;10.022;2023-01-29T08:18:02;-0.60;80.70
5779;DHT22;2916;49.798;10.022;2023-01-29T08:20:29;-0.70;79.90
5779;DHT22;2916;49.798;10.022;2023-01-29T08:23:00;-0.70;79.30
5779;DHT22;2916;49.798;10.022;2023-01-29T08:25:28;-0.60;75.70
5779;DHT22;2916;49.798;10.022;2023-01-29T08:27:57;-0.70;74.30
5779;DHT22;2916;49.798;10.022;2023-01-29T08:30:25;-0.50;80.60
5779;DHT22;2916;49.798;10.022;2023-01-29T08:32:52;-0.50;79.50
5779;DHT22;2916;49.798;10.022;2023-01-29T08:35:19;-0.50;73.10
5779;DHT22;2916;49.798;10.022;2023-01-29T08:37:52;-0.40;73.20
5779;DHT22;2916;49.798;10.022;2023-01-29T08:40:19;-0.40;78.30
5779;DHT22;2916;49.798;10.022;2023-01-29T08:42:46;-0.30;74.30
5779;DHT22;2916;49.798;10.022;2023-01-29T08:45:14;-0.20;77.30
5779;DHT22;2916;49.798;10.022;2023-01-29T08:47:44;-0.20;73.20
5779;DHT22;2916;49.798;10.022;2023-01-29T08:50:11;-0.20;69.20
5779;DHT22;2916;49.798;10.022;2023-01-29T08:52:38;-0.10;77.10
5779;DHT22;2916;49.798;10.022;2023-01-29T08:55:06;0.00;72.80
5779;DHT22;2916;49.798;10.022;2023-01-29T08:57:33;0.00;71.60
5779;DHT22;2916;49.798;10.022;2023-01-29T09:00:00;0.00;58.30
5779;DHT22;2916;49.798;10.022;2023-01-29T09:02:29;-0.10;55.30
5779;DHT22;2916;49.798;10.022;2023-01-29T09:04:56;-0.10;58.10
5779;DHT22;2916;49.798;10.022;2023-01-29T09:07:23;0.10;59.70
5779;DHT22;2916;49.798;10.022;2023-01-29T09:09:50;0.00;55.40
5779;DHT22;2916;49.798;10.022;2023-01-29T09:12:17;0.00;56.20
5779;DHT22;2916;49.798;10.022;2023-01-29T09:14:44;0.00;56.00
5779;DHT22;2916;49.798;10.022;2023-01-29T09:17:11;0.00;54.80
5779;DHT22;2916;49.798;10.022;2023-01-29T09:19:39;0.00;58.20
5779;DHT22;2916;49.798;10.022;2023-01-29T09:22:06;0.10;56.40
5779;DHT22;2916;49.798;10.022;2023-01-29T09:24:33;0.10;55.40
5779;DHT22;2916;49.798;10.022;2023-01-29T09:27:00;0.30;55.80
5779;DHT22;2916;49.798;10.022;2023-01-29T09:29:27;0.20;38.30
5779;DHT22;2916;49.798;10.022;2023-01-29T09:31:54;0.10;45.50
5779;DHT22;2916;49.798;10.022;2023-01-29T09:34:21;0.30;44.90
5779;DHT22;2916;49.798;10.022;2023-01-29T09:36:51;0.30;38.10
5779;DHT22;2916;49.798;10.022;2023-01-29T09:39:17;0.30;38.30
5779;DHT22;2916;49.798;10.022;2023-01-29T09:41:53;0.30;41.00
5779;DHT22;2916;49.798;10.022;2023-01-29T09:44:30;0.50;43.40
5779;DHT22;2916;49.798;10.022;2023-01-29T09:47:01;0.70;37.20
5779;DHT22;2916;49.798;10.022;2023-01-29T09:49:34;0.90;39.90
5779;DHT22;2916;49.798;10.022;2023-01-29T09:52:10;0.80;30.60
5779;DHT22;2916;49.798;10.022;2023-01-29T09:54:48;0.60;26.30
5779;DHT22;2916;49.798;10.022;2023-01-29T09:57:21;0.50;29.90
5779;DHT22;2916;49.798;10.022;2023-01-29T09:59:50;0.40;28.90
5779;DHT22;2916;49.798;10.022;2023-01-29T10:02:32;0.50;30.20
5779;DHT22;2916;49.798;10.022;2023-01-29T10:05:16;0.50;29.40
5779;DHT22;2916;49.798;10.022;2023-01-29T10:08:03;0.40;27.00
5779;DHT22;2916;49.798;10.022;2023-01-29T10:10:42;0.30;29.20
5779;DHT22;2916;49.798;10.022;2023-01-29T10:13:19;0.40;37.80
5779;DHT22;2916;49.798;10.022;2023-01-29T10:21:49;0.70;43.10
5779;DHT22;2916;49.798;10.022;2023-01-29T10:24:27;0.70;35.00
5779;DHT22;2916;49.798;10.022;2023-01-29T10:26:56;0.70;33.50
5779;DHT22;2916;49.798;10.022;2023-01-29T10:29:24;0.80;36.20
5779;DHT22;2916;49.798;10.022;2023-01-29T10:31:55;0.80;35.90
5779;DHT22;2916;49.798;10.022;2023-01-29T10:34:28;0.90;36.10
5779;DHT22;2916;49.798;10.022;2023-01-29T10:36:55;0.90;28.20
5779;DHT22;2916;49.798;10.022;2023-01-29T10:39:25;1.00;29.90
5779;DHT22;2916;49.798;10.022;2023-01-29T10:42:00;1.10;25.40
5779;DHT22;2916;49.798;10.022;2023-01-29T10:44:39;1.00;24.60
5779;DHT22;2916;49.798;10.022;2023-01-29T10:47:23;1.10;24.30
5779;DHT22;2916;49.798;10.022;2023-01-29T10:50:07;1.00;18.80
5779;DHT22;2916;49.798;10.022;2023-01-29T10:52:47;1.10;26.30
5779;DHT22;2916;49.798;10.022;2023-01-29T10:55:28;1.20;24.30
5779;DHT22;2916;49.798;10.022;2023-01-29T10:58:06;1.30;23.40
5779;DHT22;2916;49.798;10.022;2023-01-29T11:00:38;1.30;24.90
5779;DHT22;2916;49.798;10.022;2023-01-29T11:03:21;1.40;20.80
5779;DHT22;2916;49.798;10.022;2023-01-29T11:05:53;1.50;19.50
5779;DHT22;2916;49.798;10.022;2023-01-29T11:08:24;1.60;21.20
5779;DHT22;2916;49.798;10.022;2023-01-29T11:11:02;1.70;23.70
5779;DHT22;2916;49.798;10.022;2023-01-29T11:13:35;1.40;12.40
5779;DHT22;2916;49.798;10.022;2023-01-29T11:16:05;1.50;13.90
5779;DHT22;2916;49.798;10.022;2023-01-29T11:18:54;1.00;9.60
5779;DHT22;2916;49.798;10.022;2023-01-29T11:21:23;1.10;14.70
5779;DHT22;2916;49.798;10.022;2023-01-29T11:24:04;1.20;19.50
5779;DHT22;2916;49.798;10.022;2023-01-29T11:26:37;1.20;12.70
5779;DHT22;2916;49.798;10.022;2023-01-29T11:29:05;1.20;17.30
5779;DHT22;2916;49.798;10.022;2023-01-29T11:31:52;1.20;12.80
5779;DHT22;2916;49.798;10.022;2023-01-29T11:34:21;1.40;15.30
5779;DHT22;2916;49.798;10.022;2023-01-29T11:36:56;1.60;18.30
5779;DHT22;2916;49.798;10.022;2023-01-29T11:39:24;1.50;9.20
5779;DHT22;2916;49.798;10.022;2023-01-29T11:41:55;1.30;10.00
5779;DHT22;2916;49.798;10.022;2023-01-29T11:44:29;1.30;13.90
5779;DHT22;2916;49.798;10.022;2023-01-29T11:47:06;1.30;10.70
5779;DHT22;2916;49.798;10.022;2023-01-29T11:49:36;1.50;19.30
5779;DHT22;2916;49.798;10.022;2023-01-29T11:52:08;1.20;10.70
5779;DHT22;2916;49.798;10.022;2023-01-29T11:54:38;1.40;19.10
5779;DHT22;2916;49.798;10.022;2023-01-29T11:57:23;1.60;16.00
5779;DHT22;2916;49.798;10.022;2023-01-29T11:59:52;1.30;9.90
5779;DHT22;2916;49.798;10.022;2023-01-29T12:02:24;1.50;14.60
5779;DHT22;2916;49.798;10.022;2023-01-29T12:04:57;1.20;8.80
5779;DHT22;2916;49.798;10.022;2023-01-29T12:07:25;1.30;13.40
5779;DHT22;2916;49.798;10.022;2023-01-29T12:09:54;1.40;13.30
5779;DHT22;2916;49.798;10.022;2023-01-29T12:12:45;1.20;7.80
5779;DHT22;2916;49.798;10.022;2023-01-29T12:15:17;0.90;11.10
5779;DHT22;2916;49.798;10.022;2023-01-29T12:17:55;0.90;9.50
5779;DHT22;2916;49.798;10.022;2023-01-29T12:20:28;1.00;15.40
5779;DHT22;2916;49.798;10.022;2023-01-29T12:23:02;1.00;13.00
5779;DHT22;2916;49.798;10.022;2023-01-29T12:25:40;1.00;11.80
5779;DHT22;2916;49.798;10.022;2023-01-29T12:28:20;1.30;16.00
5779;DHT22;2916;49.798;10.022;2023-01-29T12:30:58;1.20;12.00
5779;DHT22;2916;49.798;10.022;2023-01-29T12:33:37;1.60;17.90
5779;DHT22;2916;49.798;10.022;2023-01-29T12:36:11;1.70;15.70
5779;DHT22;2916;49.798;10.022;2023-01-29T12:38:40;1.70;11.00
5779;DHT22;2916;49.798;10.022;2023-01-29T12:41:24;1.40;9.00
5779;DHT22;2916;49.798;10.022;2023-01-29T12:43:57;1.50;8.50
5779;DHT22;2916;49.798;10.022;2023-01-29T12:46:28;1.40;10.80
5779;DHT22;2916;49.798;10.022;2023-01-29T12:48:57;1.40;12.30
5779;DHT22;2916;49.798;10.022;2023-01-29T12:51:32;1.50;12.20
5779;DHT22;2916;49.798;10.022;2023-01-29T12:54:04;1.40;10.50
5779;DHT22;2916;49.798;10.022;2023-01-29T12:56:35;1.50;11.20
5779;DHT22;2916;49.798;10.022;2023-01-29T12:59:14;1.30;12.30
5779;DHT22;2916;49.798;10.022;2023-01-29T13:01:48;1.20;13.10
5779;DHT22;2916;49.798;10.022;2023-01-29T13:04:29;1.20;15.80
5779;DHT22;2916;49.798;10.022;2023-01-29T13:07:02;1.10;16.20
5779;DHT22;2916;49.798;10.022;2023-01-29T13:09:33;1.20;17.60
5779;DHT22;2916;49.798;10.022;2023-01-29T13:12:05;1.30;17.40
5779;DHT22;2916;49.798;10.022;2023-01-29T13:14:43;1.40;17.60
5779;DHT22;2916;49.798;10.022;2023-01-29T13:17:15;1.40;15.20
5779;DHT22;2916;49.798;10.022;2023-01-29T13:19:45;1.50;15.90
5779;DHT22;2916;49.798;10.022;2023-01-29T13:22:19;1.50;12.30
5779;DHT22;2916;49.798;10.022;2023-01-29T13:24:47;1.60;14.40
5779;DHT22;2916;49.798;10.022;2023-01-29T13:27:20;1.60;14.40
5779;DHT22;2916;49.798;10.022;2023-01-29T13:29:49;1.50;13.90
5779;DHT22;2916;49.798;10.022;2023-01-29T13:32:20;1.50;12.30
5779;DHT22;2916;49.798;10.022;2023-01-29T13:34:50;1.50;13.80
5779;DHT22;2916;49.798;10.022;2023-01-29T13:37:26;1.70;14.50
5779;DHT22;2916;49.798;10.022;2023-01-29T13:39:56;1.80;13.70
5779;DHT22;2916;49.798;10.022;2023-01-29T13:42:31;1.80;13.60
5779;DHT22;2916;49.798;10.022;2023-01-29T13:45:04;1.80;14.70
5779;DHT22;2916;49.798;10.022;2023-01-29T13:47:33;2.00;12.80
5779;DHT22;2916;49.798;10.022;2023-01-29T13:50:05;1.80;10.90
5779;DHT22;2916;49.798;10.022;2023-01-29T13:52:36;1.80;10.70
5779;DHT22;2916;49.798;10.022;2023-01-29T13:55:07;1.90;15.10
5779;DHT22;2916;49.798;10.022;2023-01-29T13:57:49;1.70;10.20
5779;DHT22;2916;49.798;10.022;2023-01-29T14:00:48;1.80;12.90
5779;DHT22;2916;49.798;10.022;2023-01-29T14:03:44;1.80;11.10
5779;DHT22;2916;49.798;10.022;2023-01-29T14:06:35;1.90;12.30
5779;DHT22;2916;49.798;10.022;2023-01-29T14:12:32;2.00;9.90
5779;DHT22;2916;49.798;10.022;2023-01-29T14:15:17;1.80;6.90
5779;DHT22;2916;49.798;10.022;2023-01-29T14:21:01;1.80;7.20
5779;DHT22;2916;49.798;10.022;2023-01-29T14:23:44;1.80;7.90
5779;DHT22;2916;49.798;10.022;2023-01-29T14:26:22;1.70;7.50
5779;DHT22;2916;49.798;10.022;2023-01-29T14:29:00;1.80;10.00
5779;DHT22;2916;49.798;10.022;2023-01-29T14:31:38;1.70;6.80
5779;DHT22;2916;49.798;10.022;2023-01-29T14:34:17;1.80;8.00
5779;DHT22;2916;49.798;10.022;2023-01-29T14:36:48;1.90;9.60
5779;DHT22;2916;49.798;10.022;2023-01-29T14:39:23;1.90;11.10
5779;DHT22;2916;49.798;10.022;2023-01-29T14:41:53;2.00;8.60
5779;DHT22;2916;49.798;10.022;2023-01-29T14:44:47;1.80;10.70
5779;DHT22;2916;49.798;10.022;2023-01-29T14:47:18;1.80;10.60
5779;DHT22;2916;49.798;10.022;2023-01-29T14:49:53;1.70;12.00
5779;DHT22;2916;49.798;10.022;2023-01-29T14:52:25;1.80;13.40
5779;DHT22;2916;49.798;10.022;2023-01-29T14:54:57;1.80;14.20
5779;DHT22;2916;49.798;10.022;2023-01-29T14:57:26;1.70;13.00
5779;DHT22;2916;49.798;10.022;2023-01-29T14:59:57;1.70;15.70
5779;DHT22;2916;49.798;10.022;2023-01-29T15:02:28;1.70;17.60
5779;DHT22;2916;49.798;10.022;2023-01-29T15:05:01;1.70;17.20
5779;DHT22;2916;49.798;10.022;2023-01-29T15:07:33;1.70;18.60
5779;DHT22;2916;49.798;10.022;2023-01-29T15:10:05;1.70;20.50
5779;DHT22;2916;49.798;10.022;2023-01-29T15:12:40;1.70;21.10
5779;DHT22;2916;49.798;10.022;2023-01-29T15:15:15;1.60;19.90
5779;DHT22;2916;49.798;10.022;2023-01-29T15:17:51;1.60;22.60
5779;DHT22;2916;49.798;10.022;2023-01-29T15:20:38;1.50;23.60
5779;DHT22;2916;49.798;10.022;2023-01-29T15:23:25;1.60;24.70
5779;DHT22;2916;49.798;10.022;2023-01-29T15:25:55;1.50;25.10
5779;DHT22;2916;49.798;10.022;2023-01-29T15:28:22;1.40;27.80
5779;DHT22;2916;49.798;10.022;2023-01-29T15:30:52;1.40;28.40
5779;DHT22;2916;49.798;10.022;2023-01-29T15:33:20;1.40;31.60
5779;DHT22;2916;49.798;10.022;2023-01-29T15:35:48;1.40;31.40
5779;DHT22;2916;49.798;10.022;2023-01-29T15:38:21;1.40;34.70
5779;DHT22;2916;49.798;10.022;2023-01-29T15:40:55;1.30;35.20
5779;DHT22;2916;49.798;10.022;2023-01-29T15:43:24;1.30;37.80
5779;DHT22;2916;49.798;10.022;2023-01-29T15:45:54;1.20;40.10
5779;DHT22;2916;49.798;10.022;2023-01-29T15:48:28;1.20;43.80
5779;DHT22;2916;49.798;10.022;2023-01-29T15:50:57;1.10;44.40
5779;DHT22;2916;49.798;10.022;2023-01-29T15:53:28;1.10;49.70
5779;DHT22;2916;49.798;10.022;2023-01-29T15:55:58;1.00;49.20
5779;DHT22;2916;49.798;10.022;2023-01-29T15:58:28;1.10;52.50
5779;DHT22;2916;49.798;10.022;2023-01-29T16:00:57;1.00;54.60
5779;DHT22;2916;49.798;10.022;2023-01-29T16:03:26;1.00;58.30
5779;DHT22;2916;49.798;10.022;2023-01-29T16:05:56;0.90;62.10
5779;DHT22;2916;49.798;10.022;2023-01-29T16:08:25;0.80;61.10
5779;DHT22;2916;49.798;10.022;2023-01-29T16:10:55;0.80;66.30
5779;DHT22;2916;49.798;10.022;2023-01-29T16:13:26;0.80;71.10
5779;DHT22;2916;49.798;10.022;2023-01-29T16:15:54;0.80;73.60
5779;DHT22;2916;49.798;10.022;2023-01-29T16:18:24;0.70;75.80
5779;DHT22;2916;49.798;10.022;2023-01-29T16:20:52;0.70;75.40
5779;DHT22;2916;49.798;10.022;2023-01-29T16:23:22;0.70;79.00
5779;DHT22;2916;49.798;10.022;2023-01-29T16:25:52;0.70;79.80
5779;DHT22;2916;49.798;10.022;2023-01-29T16:28:20;0.60;81.90
5779;DHT22;2916;49.798;10.022;2023-01-29T16:30:54;0.60;83.00
5779;DHT22;2916;49.798;10.022;2023-01-29T16:33:29;0.60;83.00
5779;DHT22;2916;49.798;10.022;2023-01-29T16:35:59;0.60;84.80
5779;DHT22;2916;49.798;10.022;2023-01-29T16:38:28;0.60;83.10